Redmond, Washington
Current Conditions -  °F | °C
As of 1:53 PM on Wednesday 22 Oct 2014 (Local Time) from KBFI Reporting Station
Light Rain Light Rain  
Wind Chill: 59°   Ceiling: 2000
Heat Index: 59°   Visibility: 7mi
Dew Point: 55°   Wind: 5mph
Humidity: 87%   Direction: 140°SE
Pressure: 29.68"   Gusts: NA
Location:  47.68°N, 122.13°W
Report Text: KBFI 222053Z 14004KT 7SM -RA SCT011 BKN020 OVC060 15/13 A2968 RMK AO2 SLP051 P0005 60023 T01500128 58015
Loading
Personal Weather Stations






























Interactive Weather Map
Tropical Storm Tracking
New forecast layout! Learn more

10-Day Weather Forecast

Advertisements
Track Severe Weather on mobile